Pagrindinis puslapis
METAR-TAF:

METAR-TAF

Oro uostai :

Mendosa, Argentina

platuma: 32-50S, ilguma: 068-47W, Aukštis: 705 m

Dabartinis oras

Ataskaita buvo paskelbta 41 minutes, ne 14:00 UTC
Vėjas 6 kt iš Rytų/Pietryčių, svyruoja nuo Rytų/Šiaurės Rytų ir Pietų
Temperatūra 20°C
Drėgmė 40%
Slėgis 1023 hPa
Matomumas 10 km arba daugiau
nėra debesų žemiau 1500 m ir nėra kamuolinių lietaus debesų

METAR: SAME 231400Z 11006KT 060V170 CAVOK 20/06 Q1023

Laikas: 11:41 (14:41 UTC)

Prognozė

Ataskaita buvo paskelbta 3 valandos ir 41 minutes, ne 11:00 UTC
Prognozė galioja nuo 23 metu 12 UTC su 24 metu 12 UTC
Vėjas 5 kt iš Pietų/Pietvakarių
Matomumas 10 km arba daugiau
nėra debesų žemiau 1500 m ir nėra kamuolinių lietaus debesų
Tapsmas
nuo 23 metu 14 UTC su 23 metu 16 UTC
Vėjas 10 kt iš Šiaurės Rytų
Tapsmas
nuo 24 metu 02 UTC su 24 metu 04 UTC
Vėjas 5 kt iš Pietų/Pietvakarių

TAF: SAME 231100Z 2312/2412 20005KT CAVOK TX26/2320Z TN10/2411Z BECMG 2314/2316 05010KT BECMG 2402/2404 20005KT

Orai ataskaitas ir orų prognozės (METAR, TAF).

turimą stotys yra geltonos ir raudonos taškus žemėlapyje.

Perkelti pele per norėdami pamatyti stoties vardą.

Tada spustelėkite, norėdami matyti oro stebėjimo ir prognozės.

Norėdami pakeisti žemėlapį: spustelėkite ant žalios mygtukų su juodo kryžiaus žemyn,; žalią mygtuką su brūkšneliu, jei norite nutolinti; arba žalių rodyklių gretimoms žemėlapius.


METAR-TAF: